sensor_id;sensor_type;location;lat;lon;timestamp;pressure;altitude;pressure_sealevel;temperature;humidity
57374;BME280;43964;53.890;25.340;2023-03-03T10:43:49;1018.3;;;6.8;58.9
57374;BME280;43964;53.890;25.340;2023-03-03T10:49:14;1018.3;;;7;58.8
57374;BME280;43964;53.890;25.340;2023-03-03T10:54:08;1018.3;;;7.2;58.6
57374;BME280;43964;53.890;25.340;2023-03-03T10:58:49;1018.2;;;7.3;58.4
57374;BME280;43964;53.890;25.340;2023-03-03T11:04:22;1018.2;;;7.4;57.9
57374;BME280;43964;53.890;25.340;2023-03-03T11:08:51;1018.1;;;7.7;57.6
57374;BME280;43964;53.890;25.340;2023-03-03T11:14:16;1018.1;;;7.7;57.8
57374;BME280;43964;53.890;25.340;2023-03-03T11:19:08;1018.1;;;7.4;57.5
57374;BME280;43964;53.890;25.340;2023-03-03T11:23:35;1018;;;7.4;57.4
57374;BME280;43964;53.890;25.340;2023-03-03T11:29:20;1017.9;;;7.5;57.1
57374;BME280;43964;53.890;25.340;2023-03-03T11:33:53;1017.9;;;7.4;56.9
57374;BME280;43964;53.890;25.340;2023-03-03T11:39:15;1017.9;;;7.7;56.2
57374;BME280;43964;53.890;25.340;2023-03-03T11:44:09;1017.8;;;7.8;56.2
57374;BME280;43964;53.890;25.340;2023-03-03T11:48:37;1017.7;;;7.8;56
57374;BME280;43964;53.890;25.340;2023-03-03T11:54:14;1017.7;;;7.9;55.9
57374;BME280;43964;53.890;25.340;2023-03-03T11:58:43;1017.7;;;8.1;55.8
57374;BME280;43964;53.890;25.340;2023-03-03T12:04:17;1017.7;;;8.1;55.5
57374;BME280;43964;53.890;25.340;2023-03-03T12:09:00;1017.7;;;8;55.5
57374;BME280;43964;53.890;25.340;2023-03-03T12:14:20;1017.7;;;8;55.3
57374;BME280;43964;53.890;25.340;2023-03-03T12:19:20;1017.7;;;8;55.2
57374;BME280;43964;53.890;25.340;2023-03-03T12:24:07;1017.7;;;8.3;54.9
57374;BME280;43964;53.890;25.340;2023-03-03T12:29:18;1017.7;;;8.2;54.7
57374;BME280;43964;53.890;25.340;2023-03-03T12:34:09;1017.6;;;8.1;54.7
57374;BME280;43964;53.890;25.340;2023-03-03T12:38:50;1017.5;;;8.2;54.6
57374;BME280;43964;53.890;25.340;2023-03-03T12:44:17;1017.5;;;8.4;54.4
57374;BME280;43964;53.890;25.340;2023-03-03T12:48:52;1017.4;;;8.3;54.3
57374;BME280;43964;53.890;25.340;2023-03-03T12:54:20;1017.4;;;8;53.8
57374;BME280;43964;53.890;25.340;2023-03-03T12:59:06;1017.3;;;8;54.1
57374;BME280;43964;53.890;25.340;2023-03-03T13:04:02;1017.2;;;8;54.3
57374;BME280;43964;53.890;25.340;2023-03-03T13:09:18;1017.1;;;8;53.9
57374;BME280;43964;53.890;25.340;2023-03-03T13:13:56;1017.1;;;8;53.7
57374;BME280;43964;53.890;25.340;2023-03-03T13:19:17;1017.1;;;8;53.6
57374;BME280;43964;53.890;25.340;2023-03-03T13:24:06;1017.1;;;8.1;53.7
57374;BME280;43964;53.890;25.340;2023-03-03T13:28:39;1017.2;;;8.1;53.6
57374;BME280;43964;53.890;25.340;2023-03-03T13:34:20;1017.2;;;8.1;53.8
57374;BME280;43964;53.890;25.340;2023-03-03T13:38:55;1017.1;;;8.1;53.8
57374;BME280;43964;53.890;25.340;2023-03-03T13:44:20;1017.2;;;8;53.8
57374;BME280;43964;53.890;25.340;2023-03-03T13:49:12;1017.2;;;7.9;54
57374;BME280;43964;53.890;25.340;2023-03-03T13:53:42;1017.2;;;7.8;54.1
57374;BME280;43964;53.890;25.340;2023-03-03T13:59:19;1017.2;;;7.5;54.2
57374;BME280;43964;53.890;25.340;2023-03-03T14:04:01;1017.1;;;7.3;54.4
57374;BME280;43964;53.890;25.340;2023-03-03T14:09:13;1017.1;;;7.1;54.8
57374;BME280;43964;53.890;25.340;2023-03-03T14:14:07;1017.1;;;7;55
57374;BME280;43964;53.890;25.340;2023-03-03T14:18:42;1017.1;;;7;55.1
57374;BME280;43964;53.890;25.340;2023-03-03T14:24:15;1017;;;7.1;55.1
57374;BME280;43964;53.890;25.340;2023-03-03T14:29:09;1016.9;;;7;55.5
57374;BME280;43964;53.890;25.340;2023-03-03T14:33:58;1016.9;;;7.2;55.5
57374;BME280;43964;53.890;25.340;2023-03-03T14:39:25;1016.9;;;7.3;55.5
57374;BME280;43964;53.890;25.340;2023-03-03T14:43:32;1016.9;;;7.3;55.6
57374;BME280;43964;53.890;25.340;2023-03-03T14:49:15;1016.9;;;7.2;55.6
57374;BME280;43964;53.890;25.340;2023-03-03T14:53:53;1016.8;;;7.2;55.5
57374;BME280;43964;53.890;25.340;2023-03-03T14:59:11;1016.8;;;7.1;55.6
57374;BME280;43964;53.890;25.340;2023-03-03T15:04:22;1016.8;;;7;55.6
57374;BME280;43964;53.890;25.340;2023-03-03T15:08:39;1016.7;;;6.9;55.6
57374;BME280;43964;53.890;25.340;2023-03-03T15:14:03;1016.7;;;6.8;55.6
57374;BME280;43964;53.890;25.340;2023-03-03T15:19:19;1016.6;;;6.7;55.6
57374;BME280;43964;53.890;25.340;2023-03-03T15:24:02;1016.6;;;6.6;55.5
57374;BME280;43964;53.890;25.340;2023-03-03T15:29:15;1016.6;;;6.5;55.4
57374;BME280;43964;53.890;25.340;2023-03-03T15:33:37;1016.5;;;6.5;55.4
57374;BME280;43964;53.890;25.340;2023-03-03T15:39:15;1016.5;;;6.4;55.3
57374;BME280;43964;53.890;25.340;2023-03-03T15:43:56;1016.5;;;6.4;55.3
57374;BME280;43964;53.890;25.340;2023-03-03T15:49:04;1016.5;;;6.5;55.2
57374;BME280;43964;53.890;25.340;2023-03-03T15:54:17;1016.5;;;6.5;55
57374;BME280;43964;53.890;25.340;2023-03-03T15:59:19;1016.5;;;6.4;55
57374;BME280;43964;53.890;25.340;2023-03-03T16:04:15;1016.5;;;6.3;55.1
57374;BME280;43964;53.890;25.340;2023-03-03T16:08:43;1016.5;;;6.3;55.1
57374;BME280;43964;53.890;25.340;2023-03-03T16:14:06;1016.5;;;6.3;55.1
57374;BME280;43964;53.890;25.340;2023-03-03T16:19:18;1016.5;;;6.3;55.2
57374;BME280;43964;53.890;25.340;2023-03-03T16:23:40;1016.5;;;6.2;55.3
57374;BME280;43964;53.890;25.340;2023-03-03T16:29:18;1016.5;;;6.2;55.3
57374;BME280;43964;53.890;25.340;2023-03-03T16:33:55;1016.4;;;6.1;55.3
57374;BME280;43964;53.890;25.340;2023-03-03T16:39:01;1016.4;;;6.1;55.4
57374;BME280;43964;53.890;25.340;2023-03-03T16:44:03;1016.4;;;6.1;55.5
57374;BME280;43964;53.890;25.340;2023-03-03T16:48:41;1016.4;;;6.1;55.6
57374;BME280;43964;53.890;25.340;2023-03-03T16:54:16;1016.3;;;6;55.8
57374;BME280;43964;53.890;25.340;2023-03-03T16:58:32;1016.3;;;5.9;56
57374;BME280;43964;53.890;25.340;2023-03-03T17:04:01;1016.3;;;5.8;56.1
57374;BME280;43964;53.890;25.340;2023-03-03T17:09:18;1016.3;;;5.7;56.4
57374;BME280;43964;53.890;25.340;2023-03-03T17:13:39;1016.2;;;5.6;56.5
57374;BME280;43964;53.890;25.340;2023-03-03T17:19:17;1016.2;;;5.5;56.8
57374;BME280;43964;53.890;25.340;2023-03-03T17:23:55;1016.2;;;5.4;56.9
57374;BME280;43964;53.890;25.340;2023-03-03T17:29:18;1016.2;;;5.3;57.2
57374;BME280;43964;53.890;25.340;2023-03-03T17:34:18;1016.2;;;5.1;57.6
57374;BME280;43964;53.890;25.340;2023-03-03T17:39:03;1016.1;;;5;57.8
57374;BME280;43964;53.890;25.340;2023-03-03T17:44:16;1016.1;;;4.9;57.7
57374;BME280;43964;53.890;25.340;2023-03-03T17:48:58;1016;;;4.8;58.2
57374;BME280;43964;53.890;25.340;2023-03-03T17:54:05;1016.1;;;4.8;58.5
57374;BME280;43964;53.890;25.340;2023-03-03T17:59:20;1016.1;;;4.8;58.6
57374;BME280;43964;53.890;25.340;2023-03-03T18:03:48;1016;;;4.8;58.6
57374;BME280;43964;53.890;25.340;2023-03-03T18:09:15;1016;;;4.8;58.6
57374;BME280;43964;53.890;25.340;2023-03-03T18:13:57;1016;;;4.8;58.6
57374;BME280;43964;53.890;25.340;2023-03-03T18:18:55;1016;;;4.8;58.6
57374;BME280;43964;53.890;25.340;2023-03-03T18:24:33;1015.9;;;4.8;58.5
57374;BME280;43964;53.890;25.340;2023-03-03T18:28:42;1015.9;;;4.8;58.6
57374;BME280;43964;53.890;25.340;2023-03-03T18:33:57;1015.9;;;4.9;58.6
57374;BME280;43964;53.890;25.340;2023-03-03T18:39:03;1015.8;;;4.9;58.7
57374;BME280;43964;53.890;25.340;2023-03-03T18:44:23;1015.8;;;4.9;58.9
57374;BME280;43964;53.890;25.340;2023-03-03T18:49:03;1015.8;;;4.8;59.1
57374;BME280;43964;53.890;25.340;2023-03-03T18:53:40;1015.8;;;4.8;59.2
57374;BME280;43964;53.890;25.340;2023-03-03T18:58:30;1015.8;;;4.8;59.3
57374;BME280;43964;53.890;25.340;2023-03-03T19:04:20;1015.7;;;4.8;59
57374;BME280;43964;53.890;25.340;2023-03-03T19:09:16;1015.7;;;4.8;59.1
57374;BME280;43964;53.890;25.340;2023-03-03T19:14:18;1015.6;;;4.8;59.1
57374;BME280;43964;53.890;25.340;2023-03-03T19:18:29;1015.6;;;4.7;59.2
57374;BME280;43964;53.890;25.340;2023-03-03T19:23:47;1015.5;;;4.7;59.3
57374;BME280;43964;53.890;25.340;2023-03-03T19:28:42;1015.5;;;4.7;59.2
57374;BME280;43964;53.890;25.340;2023-03-03T19:34:16;1015.5;;;4.7;59.4
57374;BME280;43964;53.890;25.340;2023-03-03T19:39:11;1015.4;;;4.7;59.4
57374;BME280;43964;53.890;25.340;2023-03-03T19:43:31;1015.4;;;4.7;59.5
57374;BME280;43964;53.890;25.340;2023-03-03T19:48:32;1015.3;;;4.7;59.6
57374;BME280;43964;53.890;25.340;2023-03-03T19:53:33;1015.2;;;4.7;59.9
57374;BME280;43964;53.890;25.340;2023-03-03T19:59:18;1015.1;;;4.7;60.1
57374;BME280;43964;53.890;25.340;2023-03-03T20:04:08;1015.2;;;4.6;60.1
57374;BME280;43964;53.890;25.340;2023-03-03T20:08:40;1015.1;;;4.6;59.9
57374;BME280;43964;53.890;25.340;2023-03-03T20:13:43;1015.1;;;4.5;60.2
57374;BME280;43964;53.890;25.340;2023-03-03T20:19:20;1015.1;;;4.5;60.3
57374;BME280;43964;53.890;25.340;2023-03-03T20:24:20;1015;;;4.4;60.6
57374;BME280;43964;53.890;25.340;2023-03-03T20:29:00;1014.8;;;4.3;60.8
57374;BME280;43964;53.890;25.340;2023-03-03T20:34:01;1014.8;;;4.3;60.8
57374;BME280;43964;53.890;25.340;2023-03-03T20:38:31;1014.8;;;4.2;61.1
57374;BME280;43964;53.890;25.340;2023-03-03T20:44:06;1014.7;;;4.2;61
57374;BME280;43964;53.890;25.340;2023-03-03T20:49:26;1014.6;;;4.2;60.9
57374;BME280;43964;53.890;25.340;2023-03-03T20:54:05;1014.5;;;4.2;61
57374;BME280;43964;53.890;25.340;2023-03-03T20:58:32;1014.5;;;4.1;61
57374;BME280;43964;53.890;25.340;2023-03-03T21:03:51;1014.4;;;3.9;60.8
57374;BME280;43964;53.890;25.340;2023-03-03T21:08:38;1014.3;;;3.7;61
57374;BME280;43964;53.890;25.340;2023-03-03T21:14:16;1014.4;;;3.7;61.2
57374;BME280;43964;53.890;25.340;2023-03-03T21:19:03;1014.3;;;3.8;61.4
57374;BME280;43964;53.890;25.340;2023-03-03T21:23:39;1014.2;;;3.9;61.4
57374;BME280;43964;53.890;25.340;2023-03-03T21:28:58;1014.2;;;3.8;61.2
57374;BME280;43964;53.890;25.340;2023-03-03T21:34:03;1014.1;;;3.8;61.8
57374;BME280;43964;53.890;25.340;2023-03-03T21:39:19;1014;;;3.9;61.8
57374;BME280;43964;53.890;25.340;2023-03-03T21:44:01;1013.8;;;3.8;61.8
57374;BME280;43964;53.890;25.340;2023-03-03T21:48:39;1013.7;;;3.8;61.8
57374;BME280;43964;53.890;25.340;2023-03-03T21:53:29;1013.5;;;3.7;61.8
57374;BME280;43964;53.890;25.340;2023-03-03T21:59:03;1013.4;;;3.6;61.9
57374;BME280;43964;53.890;25.340;2023-03-03T22:04:16;1013.3;;;3.6;61.8
57374;BME280;43964;53.890;25.340;2023-03-03T22:09:03;1013.2;;;3.6;61.9
57374;BME280;43964;53.890;25.340;2023-03-03T22:13:29;1013.2;;;3.6;62.1
57374;BME280;43964;53.890;25.340;2023-03-03T22:18:51;1013.1;;;3.6;62.3
57374;BME280;43964;53.890;25.340;2023-03-03T22:24:03;1013.1;;;3.5;62.3
57374;BME280;43964;53.890;25.340;2023-03-03T22:29:13;1013;;;3.5;62.3
57374;BME280;43964;53.890;25.340;2023-03-03T22:34:03;1012.8;;;3.3;62.9
57374;BME280;43964;53.890;25.340;2023-03-03T22:38:49;1012.7;;;3.3;63.2
57374;BME280;43964;53.890;25.340;2023-03-03T22:43:39;1012.7;;;3.3;63.1
57374;BME280;43964;53.890;25.340;2023-03-03T22:48:29;1012.5;;;3.1;63.6
57374;BME280;43964;53.890;25.340;2023-03-03T22:54:15;1012.4;;;3.1;64.1
57374;BME280;43964;53.890;25.340;2023-03-03T22:59:03;1012.4;;;3;63.5
57374;BME280;43964;53.890;25.340;2023-03-03T23:03:29;1012.2;;;2.9;64.6
57374;BME280;43964;53.890;25.340;2023-03-03T23:08:39;1012.2;;;2.9;65.1
57374;BME280;43964;53.890;25.340;2023-03-03T23:13:41;1012.2;;;2.9;65.2
57374;BME280;43964;53.890;25.340;2023-03-03T23:19:03;1012.1;;;3;65
57374;BME280;43964;53.890;25.340;2023-03-03T23:23:51;1012;;;3.1;65
57374;BME280;43964;53.890;25.340;2023-03-03T23:28:49;1011.8;;;3;65
57374;BME280;43964;53.890;25.340;2023-03-03T23:33:49;1011.7;;;3;65.1
57374;BME280;43964;53.890;25.340;2023-03-03T23:38:39;1011.5;;;3.1;65
57374;BME280;43964;53.890;25.340;2023-03-03T23:44:09;1011.5;;;3.1;65.1
57374;BME280;43964;53.890;25.340;2023-03-03T23:49:01;1011.4;;;3.1;65.6
57374;BME280;43964;53.890;25.340;2023-03-03T23:53:37;1011.2;;;3.1;65.6
57374;BME280;43964;53.890;25.340;2023-03-03T23:58:37;1011;;;3.1;65.4
